createdAt,value
2018-06-15T00:00:28.859Z,99.90
2018-06-15T00:02:34.807Z,99.90
2018-06-15T00:04:40.148Z,99.90
2018-06-15T00:06:45.061Z,99.90
2018-06-15T00:08:50.021Z,99.90
2018-06-15T00:10:55.217Z,99.90
2018-06-15T00:13:00.231Z,99.90
2018-06-15T00:15:05.413Z,99.90
2018-06-15T00:17:10.465Z,99.90
2018-06-15T00:19:15.663Z,99.90
2018-06-15T00:21:20.616Z,99.90
2018-06-15T00:23:25.750Z,99.90
2018-06-15T00:25:30.766Z,99.90
2018-06-15T00:27:36.069Z,99.90
2018-06-15T00:29:41.045Z,99.90
2018-06-15T00:31:46.196Z,99.90
2018-06-15T00:33:51.113Z,99.90
2018-06-15T00:35:56.127Z,99.90
2018-06-15T00:38:01.175Z,99.90
2018-06-15T00:40:06.169Z,99.90
2018-06-15T00:42:11.204Z,99.90
2018-06-15T00:44:16.348Z,99.90
2018-06-15T00:46:21.279Z,99.90
2018-06-15T00:48:26.426Z,99.90
2018-06-15T00:50:31.149Z,99.90
2018-06-15T00:52:36.219Z,99.90
2018-06-15T00:54:41.097Z,99.90
2018-06-15T00:57:55.127Z,99.90
2018-06-15T00:59:59.883Z,99.90
2018-06-15T01:02:05.002Z,99.90
2018-06-15T01:04:09.737Z,99.90
2018-06-15T01:06:14.985Z,99.90
2018-06-15T01:08:19.981Z,99.90
2018-06-15T01:10:24.866Z,99.90
2018-06-15T01:12:29.872Z,99.90
2018-06-15T01:14:34.984Z,99.90
2018-06-15T01:16:41.940Z,99.90
2018-06-15T01:18:46.888Z,99.90
2018-06-15T01:20:51.831Z,99.90
2018-06-15T01:22:56.752Z,99.90
2018-06-15T01:25:01.760Z,99.90
2018-06-15T01:27:06.956Z,99.90
2018-06-15T01:29:11.682Z,99.90
2018-06-15T01:31:16.782Z,99.90
2018-06-15T01:33:21.627Z,99.90
2018-06-15T01:35:26.445Z,99.90
2018-06-15T01:37:31.234Z,99.90
2018-06-15T01:39:35.994Z,99.90
2018-06-15T01:41:40.693Z,99.90
2018-06-15T01:43:45.446Z,99.90
2018-06-15T01:45:50.416Z,99.90
2018-06-15T01:47:55.209Z,99.90
2018-06-15T01:49:59.973Z,99.90
2018-06-15T01:52:04.756Z,99.90
2018-06-15T01:54:09.792Z,99.90
2018-06-15T01:56:14.688Z,99.90
2018-06-15T01:58:19.427Z,99.90
2018-06-15T02:00:24.109Z,99.90
2018-06-15T02:02:28.807Z,99.90
2018-06-15T02:04:33.596Z,99.90
2018-06-15T02:06:38.224Z,99.90
2018-06-15T02:08:42.949Z,99.90
2018-06-15T02:10:47.647Z,99.90
2018-06-15T02:12:52.396Z,99.90
2018-06-15T02:14:57.228Z,99.90
2018-06-15T02:17:01.902Z,99.90
2018-06-15T02:19:06.576Z,99.90
2018-06-15T02:21:11.340Z,99.90
2018-06-15T02:23:16.133Z,99.90
2018-06-15T02:25:21.007Z,99.90
2018-06-15T02:27:25.831Z,99.90
2018-06-15T02:29:30.824Z,99.90
2018-06-15T02:31:35.679Z,99.90
2018-06-15T02:33:40.652Z,99.90
2018-06-15T02:35:45.515Z,99.90
2018-06-15T02:37:50.330Z,99.90
2018-06-15T02:39:55.208Z,99.90
2018-06-15T02:42:00.322Z,99.90
2018-06-15T02:44:05.326Z,99.90
2018-06-15T02:46:10.357Z,99.90
2018-06-15T02:48:15.236Z,99.90
2018-06-15T02:50:20.136Z,99.90
2018-06-15T02:52:24.993Z,99.90
2018-06-15T02:54:29.616Z,99.90
2018-06-15T02:56:34.333Z,99.90
2018-06-15T02:58:39.181Z,99.90
2018-06-15T03:00:44.032Z,99.90
2018-06-15T03:02:48.743Z,99.90
2018-06-15T03:04:53.561Z,99.90
2018-06-15T03:06:58.358Z,99.90
2018-06-15T03:09:03.262Z,99.90
2018-06-15T03:11:08.136Z,99.90
2018-06-15T03:13:12.980Z,99.90
2018-06-15T03:15:17.770Z,99.90
2018-06-15T03:17:22.735Z,99.90
2018-06-15T03:19:27.579Z,99.90
2018-06-15T03:21:32.245Z,99.90
2018-06-15T03:23:37.150Z,99.90
2018-06-15T03:25:42.018Z,99.90
2018-06-15T03:27:47.136Z,99.90
2018-06-15T03:29:52.010Z,99.90
2018-06-15T03:31:56.720Z,99.90
2018-06-15T03:34:01.433Z,99.90
2018-06-15T03:36:06.348Z,99.90
2018-06-15T03:38:11.144Z,99.90
2018-06-15T03:40:16.019Z,99.90
2018-06-15T03:42:20.829Z,99.90
2018-06-15T03:44:25.627Z,99.90
2018-06-15T03:46:30.607Z,99.90
2018-06-15T03:48:35.586Z,99.90
2018-06-15T03:50:40.274Z,99.90
2018-06-15T03:52:45.040Z,99.90
2018-06-15T03:54:49.693Z,99.90
2018-06-15T03:56:54.574Z,99.90
2018-06-15T03:58:59.326Z,99.90
2018-06-15T04:01:04.232Z,99.90
2018-06-15T04:03:08.906Z,99.90
2018-06-15T04:05:13.603Z,99.90
2018-06-15T04:07:18.425Z,99.90
2018-06-15T04:09:23.047Z,99.90
2018-06-15T04:11:27.714Z,99.90
2018-06-15T04:13:32.425Z,99.90
2018-06-15T04:15:37.114Z,99.90
2018-06-15T04:17:42.046Z,99.90
2018-06-15T04:19:46.809Z,99.90
2018-06-15T04:21:51.615Z,99.90
2018-06-15T04:23:56.531Z,99.90
2018-06-15T04:26:01.457Z,99.90
2018-06-15T04:28:06.554Z,99.90
2018-06-15T04:30:11.467Z,99.90
2018-06-15T04:32:16.489Z,99.90
2018-06-15T04:34:21.390Z,99.90
2018-06-15T04:36:26.370Z,99.90
2018-06-15T04:38:31.433Z,99.90
2018-06-15T04:40:36.485Z,99.90
2018-06-15T04:42:41.571Z,99.90
2018-06-15T04:44:46.722Z,99.90
2018-06-15T04:46:51.838Z,99.90
2018-06-15T04:48:56.922Z,99.90
2018-06-15T04:51:02.270Z,99.90
2018-06-15T04:53:07.323Z,99.90
2018-06-15T04:55:12.528Z,99.90
2018-06-15T04:57:17.643Z,99.90
2018-06-15T04:59:22.594Z,99.90
2018-06-15T05:01:27.516Z,99.90
2018-06-15T05:03:32.961Z,99.90
2018-06-15T05:05:38.058Z,99.90
2018-06-15T05:07:43.048Z,99.90
2018-06-15T05:09:48.006Z,99.90
2018-06-15T05:11:53.010Z,99.90
2018-06-15T05:13:58.245Z,99.90
2018-06-15T05:16:03.028Z,99.90
2018-06-15T05:18:08.033Z,99.90
2018-06-15T05:20:13.009Z,99.90
2018-06-15T05:22:18.169Z,99.90
2018-06-15T05:24:23.138Z,99.90
2018-06-15T05:26:28.359Z,99.90
2018-06-15T05:28:33.485Z,99.90
2018-06-15T05:30:38.372Z,99.90
2018-06-15T05:32:43.410Z,99.90
2018-06-15T05:34:48.443Z,99.90
2018-06-15T05:36:53.480Z,99.90
2018-06-15T05:38:58.632Z,99.90
2018-06-15T05:41:03.664Z,99.90
2018-06-15T05:43:08.665Z,99.90
2018-06-15T05:45:13.637Z,99.90
2018-06-15T05:47:18.836Z,99.90
2018-06-15T05:49:23.724Z,99.90
2018-06-15T05:51:28.680Z,99.90
2018-06-15T05:53:34.345Z,99.90
2018-06-15T05:55:39.386Z,99.90
2018-06-15T05:57:44.453Z,99.90
2018-06-15T05:59:51.759Z,99.90
2018-06-15T06:01:58.455Z,99.90
2018-06-15T06:04:06.957Z,99.90
2018-06-15T06:06:11.909Z,99.90
2018-06-15T06:08:19.004Z,99.90
2018-06-15T06:10:24.210Z,99.90
2018-06-15T06:12:29.303Z,99.90
2018-06-15T06:14:34.231Z,99.90
2018-06-15T06:16:39.246Z,99.90
2018-06-15T06:18:43.999Z,99.90
2018-06-15T06:20:49.023Z,99.90
2018-06-15T06:22:53.845Z,99.90
2018-06-15T06:24:58.964Z,99.90
2018-06-15T06:27:03.916Z,99.90
2018-06-15T06:29:08.774Z,99.90
2018-06-15T06:31:13.706Z,99.90
2018-06-15T06:33:18.627Z,99.90
2018-06-15T06:35:23.618Z,99.90
2018-06-15T06:37:28.611Z,99.90
2018-06-15T06:39:33.531Z,99.90
2018-06-15T06:41:38.490Z,99.90
2018-06-15T06:43:43.338Z,99.90
2018-06-15T06:45:48.296Z,99.90
2018-06-15T06:47:53.192Z,99.90
2018-06-15T06:49:58.151Z,99.90
2018-06-15T06:52:02.956Z,99.90
2018-06-15T06:54:07.706Z,99.90
2018-06-15T06:56:12.679Z,99.90
2018-06-15T06:58:17.464Z,99.90
2018-06-15T07:00:22.307Z,99.90
2018-06-15T07:02:27.317Z,99.90
2018-06-15T07:04:32.192Z,99.90
2018-06-15T07:06:37.238Z,99.90
2018-06-15T07:08:42.377Z,99.90
2018-06-15T07:10:47.335Z,99.90
2018-06-15T07:12:52.194Z,99.90
2018-06-15T07:14:58.287Z,99.90
2018-06-15T07:17:03.213Z,99.90
2018-06-15T07:19:08.161Z,99.90
2018-06-15T07:21:13.265Z,99.90
2018-06-15T07:23:18.338Z,99.90
2018-06-15T07:25:23.035Z,99.90
2018-06-15T07:27:27.978Z,99.90
2018-06-15T07:29:32.753Z,99.90
2018-06-15T07:31:37.699Z,99.90
2018-06-15T07:33:42.808Z,99.90
2018-06-15T07:35:48.007Z,99.90
2018-06-15T07:37:53.048Z,99.90
2018-06-15T07:39:57.952Z,99.90
2018-06-15T07:42:03.053Z,99.90
2018-06-15T07:44:08.294Z,99.90
2018-06-15T07:46:13.180Z,99.90
2018-06-15T07:48:31.347Z,99.90
2018-06-15T07:50:36.333Z,99.90
2018-06-15T07:52:41.145Z,99.90
2018-06-15T07:54:49.012Z,99.90
2018-06-15T07:56:57.085Z,99.90
2018-06-15T07:59:01.962Z,99.90
2018-06-15T08:01:06.978Z,99.90
2018-06-15T08:03:11.977Z,99.90
2018-06-15T08:05:17.278Z,99.90
2018-06-15T08:07:22.417Z,99.90
2018-06-15T08:09:27.818Z,99.90
2018-06-15T08:11:33.051Z,99.90
2018-06-15T08:13:38.139Z,99.90
2018-06-15T08:15:43.444Z,99.90
2018-06-15T08:17:48.525Z,99.90
2018-06-15T08:19:53.557Z,99.90
2018-06-15T08:21:58.563Z,99.90
2018-06-15T08:24:03.539Z,99.90
2018-06-15T08:26:08.569Z,99.80
2018-06-15T08:28:13.560Z,99.90
2018-06-15T08:30:18.599Z,99.90
2018-06-15T08:32:23.534Z,99.90
2018-06-15T08:34:28.449Z,99.90
2018-06-15T08:36:33.393Z,99.90
2018-06-15T08:38:38.520Z,99.90
2018-06-15T08:40:43.670Z,99.90
2018-06-15T08:42:49.255Z,99.90
2018-06-15T08:44:54.181Z,99.90
2018-06-15T08:46:59.102Z,99.90
2018-06-15T08:49:04.300Z,99.90
2018-06-15T08:51:09.248Z,99.90
2018-06-15T08:53:14.279Z,99.90
2018-06-15T08:55:19.357Z,99.90
2018-06-15T08:57:24.416Z,99.90
2018-06-15T08:59:29.387Z,99.90
2018-06-15T09:01:34.686Z,99.90
2018-06-15T09:03:39.659Z,99.70
2018-06-15T09:05:45.069Z,99.50
2018-06-15T09:07:49.963Z,99.00
2018-06-15T09:09:54.768Z,97.20
2018-06-15T09:11:59.708Z,97.20
2018-06-15T09:14:04.738Z,97.50
2018-06-15T09:16:09.654Z,97.60
2018-06-15T09:18:14.945Z,97.80
2018-06-15T09:20:20.195Z,97.00
2018-06-15T09:22:25.585Z,96.90
2018-06-15T09:24:30.976Z,97.10
2018-06-15T09:26:36.032Z,96.90
2018-06-15T09:28:41.167Z,97.10
2018-06-15T09:30:46.185Z,96.70
2018-06-15T09:32:51.162Z,97.00
2018-06-15T09:34:55.896Z,96.20
2018-06-15T09:37:00.729Z,96.00
2018-06-15T09:39:08.026Z,95.10
2018-06-15T09:41:12.777Z,95.20
2018-06-15T09:43:17.648Z,95.30
2018-06-15T09:45:22.426Z,94.70
2018-06-15T09:47:27.189Z,94.60
2018-06-15T09:49:32.150Z,93.50
2018-06-15T09:51:37.206Z,94.30
2018-06-15T09:53:42.125Z,93.90
2018-06-15T09:55:47.119Z,93.90
2018-06-15T09:57:52.377Z,93.40
2018-06-15T09:59:57.294Z,92.40
2018-06-15T10:02:02.098Z,91.80
2018-06-15T10:04:07.045Z,91.50
2018-06-15T10:06:12.047Z,91.50
2018-06-15T10:08:16.969Z,91.60
2018-06-15T10:10:22.050Z,91.80
2018-06-15T10:12:27.964Z,91.90
2018-06-15T10:14:32.809Z,92.30
2018-06-15T10:16:37.643Z,92.80
2018-06-15T10:18:42.395Z,91.70
2018-06-15T10:20:47.367Z,91.60
2018-06-15T10:22:52.332Z,92.20
2018-06-15T10:24:57.459Z,92.00
2018-06-15T10:27:03.590Z,92.70
2018-06-15T10:29:08.854Z,92.70
2018-06-15T10:31:14.206Z,92.80
2018-06-15T10:33:19.273Z,92.40
2018-06-15T10:35:24.379Z,92.30
2018-06-15T10:37:29.573Z,91.30
2018-06-15T10:39:39.177Z,91.40
2018-06-15T10:41:43.862Z,90.50
2018-06-15T10:43:48.845Z,90.40
2018-06-15T10:45:53.587Z,90.80
2018-06-15T10:48:00.818Z,90.50
2018-06-15T10:50:06.707Z,90.30
2018-06-15T10:52:12.195Z,90.90
2018-06-15T10:54:17.121Z,90.90
2018-06-15T10:56:22.142Z,90.90
2018-06-15T10:58:27.354Z,91.00
2018-06-15T11:00:32.379Z,90.20
2018-06-15T11:02:37.478Z,90.90
2018-06-15T11:04:42.724Z,91.60
2018-06-15T11:06:48.437Z,91.70
2018-06-15T11:08:53.423Z,90.50
2018-06-15T11:10:58.478Z,91.00
2018-06-15T11:13:03.441Z,91.20
2018-06-15T11:15:08.524Z,90.60
2018-06-15T11:17:13.628Z,90.10
2018-06-15T11:19:18.691Z,85.80
2018-06-15T11:21:23.761Z,82.50
2018-06-15T11:23:28.730Z,79.30
2018-06-15T11:25:33.885Z,82.30
2018-06-15T11:27:38.976Z,82.00
2018-06-15T11:29:44.272Z,80.30
2018-06-15T11:31:51.569Z,78.20
2018-06-15T11:33:56.757Z,79.20
2018-06-15T11:36:02.508Z,81.20
2018-06-15T11:38:07.737Z,80.40
2018-06-15T11:40:12.916Z,80.50
2018-06-15T11:42:17.729Z,80.10
2018-06-15T11:44:22.611Z,81.50
2018-06-15T11:46:27.674Z,82.00
2018-06-15T11:48:32.797Z,81.10
2018-06-15T11:50:37.984Z,80.00
2018-06-15T11:52:43.321Z,81.80
2018-06-15T11:54:48.422Z,81.10
2018-06-15T11:56:53.569Z,78.50
2018-06-15T11:58:58.574Z,79.40
2018-06-15T12:01:03.545Z,78.80
2018-06-15T12:03:08.429Z,79.70
2018-06-15T12:05:13.797Z,79.40
2018-06-15T12:07:18.831Z,79.60
2018-06-15T12:09:23.939Z,77.30
2018-06-15T12:11:29.090Z,75.60
2018-06-15T12:13:34.437Z,73.20
2018-06-15T12:15:39.287Z,73.40
2018-06-15T12:17:44.098Z,77.70
2018-06-15T12:19:48.941Z,78.00
2018-06-15T12:21:54.030Z,77.40
2018-06-15T12:23:59.049Z,76.00
2018-06-15T12:26:03.986Z,75.00
2018-06-15T12:28:09.491Z,76.70
2018-06-15T12:30:14.943Z,75.30
2018-06-15T12:32:19.900Z,76.50
2018-06-15T12:34:24.642Z,77.40
2018-06-15T12:36:29.583Z,74.20
2018-06-15T12:38:34.489Z,74.50
2018-06-15T12:40:39.563Z,75.40
2018-06-15T12:42:44.600Z,76.60
2018-06-15T12:44:49.661Z,74.90
2018-06-15T12:47:01.149Z,75.40
2018-06-15T12:49:06.374Z,76.60
2018-06-15T12:51:12.549Z,74.10
2018-06-15T12:53:17.395Z,75.40
2018-06-15T12:55:22.788Z,74.90
2018-06-15T12:57:27.732Z,76.00
2018-06-15T12:59:32.684Z,78.60
2018-06-15T13:01:37.693Z,77.60
2018-06-15T13:03:45.599Z,76.00
2018-06-15T13:05:51.200Z,77.10
2018-06-15T13:07:56.274Z,73.00
2018-06-15T13:10:01.634Z,73.30
2018-06-15T13:12:06.681Z,73.30
2018-06-15T13:14:11.667Z,75.80
2018-06-15T13:16:16.601Z,74.80
2018-06-15T13:18:21.631Z,73.50
2018-06-15T13:20:26.698Z,73.90
2018-06-15T13:22:31.798Z,74.40
2018-06-15T13:24:43.317Z,74.20
2018-06-15T13:26:48.322Z,71.80
2018-06-15T13:28:53.335Z,71.10
2018-06-15T13:30:58.464Z,70.10
2018-06-15T13:33:05.692Z,72.00
2018-06-15T13:35:15.442Z,71.70
2018-06-15T13:37:22.098Z,71.90
2018-06-15T13:39:28.825Z,72.50
2018-06-15T13:41:37.502Z,74.20
2018-06-15T13:43:43.375Z,73.90
2018-06-15T13:45:49.571Z,72.00
2018-06-15T13:47:56.106Z,69.80
2018-06-15T13:50:01.978Z,68.50
2018-06-15T13:52:12.766Z,69.60
2018-06-15T13:54:17.807Z,68.50
2018-06-15T13:56:27.699Z,69.10
2018-06-15T13:58:36.945Z,68.90
2018-06-15T14:00:45.553Z,68.90
2018-06-15T14:02:52.953Z,69.30
2018-06-15T14:04:58.187Z,69.70
2018-06-15T14:07:03.652Z,68.60
2018-06-15T14:09:09.905Z,69.70
2018-06-15T14:11:14.897Z,69.50
2018-06-15T14:13:19.949Z,69.60
2018-06-15T14:15:24.962Z,70.80
2018-06-15T14:17:30.089Z,72.60
2018-06-15T14:19:34.981Z,72.50
2018-06-15T14:21:39.972Z,71.80
2018-06-15T14:23:44.806Z,70.50
2018-06-15T14:25:49.787Z,69.80
2018-06-15T14:27:54.800Z,69.90
2018-06-15T14:29:59.963Z,70.60
2018-06-15T14:32:04.953Z,71.10
2018-06-15T14:34:09.985Z,68.40
2018-06-15T14:36:14.909Z,67.30
2018-06-15T14:38:20.034Z,63.50
2018-06-15T14:40:25.096Z,62.50
2018-06-15T14:42:30.236Z,59.50
2018-06-15T14:44:35.389Z,59.30
2018-06-15T14:46:40.506Z,60.10
2018-06-15T14:48:45.386Z,61.10
2018-06-15T14:50:50.610Z,62.20
2018-06-15T14:52:56.536Z,62.80
2018-06-15T14:55:01.549Z,64.60
2018-06-15T14:57:06.646Z,63.40
2018-06-15T14:59:11.906Z,62.80
2018-06-15T15:01:16.916Z,62.80
2018-06-15T15:03:22.064Z,63.70
2018-06-15T15:05:27.066Z,66.00
2018-06-15T15:07:32.847Z,66.40
2018-06-15T15:09:41.765Z,68.00
2018-06-15T15:11:47.095Z,67.50
2018-06-15T15:13:54.942Z,65.40
2018-06-15T15:15:59.765Z,64.90
2018-06-15T15:18:05.224Z,65.90
2018-06-15T15:20:10.251Z,63.80
2018-06-15T15:22:18.271Z,63.10
2018-06-15T15:24:24.694Z,64.10
2018-06-15T15:26:33.899Z,63.70
2018-06-15T15:28:40.604Z,64.60
2018-06-15T15:30:47.945Z,64.70
2018-06-15T15:32:56.319Z,64.30
2018-06-15T15:35:03.134Z,62.30
2018-06-15T15:37:09.305Z,62.30
2018-06-15T15:39:16.915Z,63.20
2018-06-15T15:41:22.199Z,61.00
2018-06-15T15:43:37.393Z,61.50
2018-06-15T15:45:42.851Z,61.60
2018-06-15T15:47:47.729Z,60.80
2018-06-15T15:49:52.970Z,62.20
2018-06-15T15:51:58.734Z,61.20
2018-06-15T15:54:03.995Z,61.40
2018-06-15T15:56:09.172Z,63.50
2018-06-15T15:58:14.289Z,62.50
2018-06-15T16:00:19.222Z,60.10
2018-06-15T16:02:24.478Z,59.50
2018-06-15T16:04:29.534Z,59.70
2018-06-15T16:06:34.671Z,59.60
2018-06-15T16:08:39.946Z,60.50
2018-06-15T16:10:44.973Z,59.10
2018-06-15T16:12:50.046Z,58.80
2018-06-15T16:14:55.252Z,57.70
2018-06-15T16:17:00.439Z,56.20
2018-06-15T16:19:05.882Z,57.50
2018-06-15T16:21:11.864Z,57.60
2018-06-15T16:23:16.889Z,57.90
2018-06-15T16:25:21.826Z,55.30
2018-06-15T16:27:26.972Z,55.50
2018-06-15T16:29:31.918Z,55.60
2018-06-15T16:31:37.029Z,54.00
2018-06-15T16:33:42.075Z,54.90
2018-06-15T16:35:46.864Z,53.40
2018-06-15T16:37:51.769Z,53.10
2018-06-15T16:39:57.064Z,54.10
2018-06-15T16:42:01.736Z,55.60
2018-06-15T16:44:06.682Z,54.10
2018-06-15T16:46:11.931Z,53.20
2018-06-15T16:48:16.806Z,51.70
2018-06-15T16:50:21.766Z,51.40
2018-06-15T16:52:26.868Z,52.00
2018-06-15T16:54:32.549Z,52.80
2018-06-15T16:56:37.505Z,52.70
2018-06-15T16:58:42.587Z,53.00
2018-06-15T17:00:47.736Z,52.50
2018-06-15T17:02:52.710Z,53.30
2018-06-15T17:04:57.939Z,52.10
2018-06-15T17:07:02.909Z,51.70
2018-06-15T17:09:10.073Z,51.50
2018-06-15T17:11:15.369Z,51.70
2018-06-15T17:13:20.593Z,51.60
2018-06-15T17:15:25.233Z,50.80
2018-06-15T17:17:30.223Z,49.90
2018-06-15T17:19:35.395Z,50.30
2018-06-15T17:21:40.440Z,49.60
2018-06-15T17:23:45.322Z,50.20
2018-06-15T17:25:50.387Z,49.90
2018-06-15T17:27:55.270Z,49.30
2018-06-15T17:30:00.114Z,50.30
2018-06-15T17:32:05.072Z,49.30
2018-06-15T17:34:10.299Z,50.50
2018-06-15T17:36:15.523Z,49.90
2018-06-15T17:38:20.563Z,48.60
2018-06-15T17:40:25.732Z,48.80
2018-06-15T17:42:30.835Z,49.20
2018-06-15T17:44:35.873Z,50.10
2018-06-15T17:46:40.938Z,50.00
2018-06-15T17:48:46.078Z,49.80
2018-06-15T17:50:51.224Z,50.10
2018-06-15T17:52:56.332Z,49.80
2018-06-15T17:55:02.353Z,50.30
2018-06-15T17:57:07.718Z,50.20
2018-06-15T17:59:13.098Z,50.80
2018-06-15T18:01:18.636Z,50.60
2018-06-15T18:03:25.120Z,50.80
2018-06-15T18:05:31.103Z,50.80
2018-06-15T18:07:40.002Z,51.10
2018-06-15T18:09:45.736Z,50.80
2018-06-15T18:11:50.967Z,51.20
2018-06-15T18:13:56.310Z,51.70
2018-06-15T18:16:01.068Z,52.20
2018-06-15T18:18:05.955Z,51.20
2018-06-15T18:20:11.161Z,51.50
2018-06-15T18:22:16.130Z,51.70
2018-06-15T18:24:20.920Z,51.60
2018-06-15T18:26:25.872Z,51.40
2018-06-15T18:28:31.129Z,51.30
2018-06-15T18:30:36.251Z,51.20
2018-06-15T18:32:41.242Z,51.50
2018-06-15T18:34:46.359Z,52.10
2018-06-15T18:36:51.337Z,52.60
2018-06-15T18:38:56.434Z,53.10
2018-06-15T18:41:01.274Z,53.40
2018-06-15T18:43:06.187Z,53.10
2018-06-15T18:45:11.670Z,52.90
2018-06-15T18:47:16.763Z,52.50
2018-06-15T18:49:21.895Z,52.80
2018-06-15T18:51:26.828Z,53.20
2018-06-15T18:53:32.150Z,53.00
2018-06-15T18:55:37.120Z,53.00
2018-06-15T18:57:42.650Z,53.10
2018-06-15T18:59:47.957Z,53.10
2018-06-15T19:01:53.120Z,53.00
2018-06-15T19:03:58.360Z,53.00
2018-06-15T19:06:03.383Z,53.90
2018-06-15T19:08:08.983Z,54.20
2018-06-15T19:10:14.152Z,53.50
2018-06-15T19:12:19.147Z,53.70
2018-06-15T19:14:24.191Z,54.30
2018-06-15T19:16:29.255Z,53.90
2018-06-15T19:18:34.228Z,54.00
2018-06-15T19:20:39.455Z,54.00
2018-06-15T19:22:44.649Z,54.40
2018-06-15T19:24:49.630Z,54.30
2018-06-15T19:26:54.790Z,54.10
2018-06-15T19:28:59.949Z,54.70
2018-06-15T19:31:05.038Z,54.90
2018-06-15T19:33:10.090Z,55.50
2018-06-15T19:35:15.380Z,55.20
2018-06-15T19:37:20.703Z,55.40
2018-06-15T19:39:25.928Z,55.80
2018-06-15T19:41:31.164Z,55.90
2018-06-15T19:43:36.637Z,56.00
2018-06-15T19:45:41.831Z,56.10
2018-06-15T19:47:47.758Z,56.40
2018-06-15T19:49:53.283Z,57.00
2018-06-15T19:51:58.362Z,56.60
2018-06-15T19:54:03.602Z,56.30
2018-06-15T19:56:08.667Z,57.00
2018-06-15T19:58:13.842Z,57.60
2018-06-15T20:00:19.049Z,58.90
2018-06-15T20:02:24.291Z,59.20
2018-06-15T20:04:29.267Z,60.00
2018-06-15T20:06:34.516Z,59.90
2018-06-15T20:08:39.872Z,60.70
2018-06-15T20:10:45.315Z,61.50
2018-06-15T20:12:52.573Z,58.50
2018-06-15T20:14:59.939Z,60.30
2018-06-15T20:17:08.090Z,60.30
2018-06-15T20:19:16.383Z,61.20
2018-06-15T20:21:23.960Z,63.10
2018-06-15T20:23:33.151Z,63.50
2018-06-15T20:25:42.160Z,62.90
2018-06-15T20:27:50.679Z,63.60
2018-06-15T20:29:59.619Z,64.50
2018-06-15T20:32:07.517Z,64.90
2018-06-15T20:34:14.817Z,67.00
2018-06-15T20:36:20.657Z,67.00
2018-06-15T20:38:26.145Z,65.80
2018-06-15T20:40:34.030Z,66.50
2018-06-15T20:42:40.566Z,67.80
2018-06-15T20:44:47.765Z,68.00
2018-06-15T20:46:53.616Z,68.70
2018-06-15T20:49:02.037Z,69.30
2018-06-15T20:51:08.322Z,69.70
2018-06-15T20:53:14.390Z,70.20
2018-06-15T20:55:19.737Z,71.00
2018-06-15T20:57:24.845Z,71.70
2018-06-15T20:59:30.384Z,71.90
2018-06-15T21:01:37.580Z,72.00
2018-06-15T21:03:42.761Z,72.50
2018-06-15T21:05:47.928Z,71.10
2018-06-15T21:07:53.509Z,72.30
2018-06-15T21:09:58.567Z,76.30
2018-06-15T21:12:03.796Z,75.90
2018-06-15T21:14:09.603Z,75.50
2018-06-15T21:16:15.276Z,76.00
2018-06-15T21:18:20.430Z,78.00
2018-06-15T21:20:25.231Z,78.00
2018-06-15T21:22:31.017Z,77.70
2018-06-15T21:26:48.622Z,78.80
2018-06-15T21:28:55.547Z,79.70
2018-06-15T21:31:01.445Z,80.30
2018-06-15T21:33:07.110Z,80.90
2018-06-15T21:35:12.555Z,81.30
2018-06-15T21:37:18.283Z,82.20
2018-06-15T21:39:24.903Z,82.80
2018-06-15T21:41:30.864Z,82.70
2018-06-15T21:43:37.320Z,83.00
2018-06-15T21:45:43.200Z,83.00
2018-06-15T21:47:48.622Z,83.70
2018-06-15T21:49:53.796Z,83.90
2018-06-15T21:51:59.260Z,83.70
2018-06-15T21:54:04.409Z,84.50
2018-06-15T21:56:09.190Z,83.70
2018-06-15T21:58:14.565Z,83.60
2018-06-15T22:00:19.681Z,84.10
2018-06-15T22:02:24.799Z,85.10
2018-06-15T22:04:29.855Z,86.80
2018-06-15T22:06:34.807Z,86.80
2018-06-15T22:08:40.111Z,88.20
2018-06-15T22:10:45.169Z,87.30
2018-06-15T22:12:49.895Z,87.40
2018-06-15T22:14:54.780Z,87.60
2018-06-15T22:16:59.934Z,88.00
2018-06-15T22:19:05.074Z,87.40
2018-06-15T22:21:10.262Z,87.20
2018-06-15T22:23:15.430Z,87.40
2018-06-15T22:25:20.477Z,88.00
2018-06-15T22:27:25.548Z,88.40
2018-06-15T22:29:30.643Z,89.00
2018-06-15T22:31:35.820Z,88.90
2018-06-15T22:33:40.968Z,89.10
2018-06-15T22:35:46.393Z,88.90
2018-06-15T22:37:51.662Z,88.90
2018-06-15T22:39:56.889Z,89.40
2018-06-15T22:42:02.153Z,89.90
2018-06-15T22:44:07.122Z,90.10
2018-06-15T22:46:12.377Z,90.10
2018-06-15T22:48:17.432Z,90.30
2018-06-15T22:50:22.506Z,90.30
2018-06-15T22:52:27.701Z,90.70
2018-06-15T22:54:32.825Z,91.00
2018-06-15T22:56:37.910Z,91.20
2018-06-15T22:58:43.387Z,91.50
2018-06-15T23:00:48.439Z,91.80
2018-06-15T23:02:57.424Z,92.40
2018-06-15T23:05:02.155Z,92.40
2018-06-15T23:07:07.036Z,92.80
2018-06-15T23:09:12.890Z,93.10
2018-06-15T23:11:20.335Z,93.40
2018-06-15T23:13:25.178Z,93.70
2018-06-15T23:15:30.060Z,93.90
2018-06-15T23:17:35.290Z,94.20
2018-06-15T23:19:40.071Z,94.60
2018-06-15T23:21:44.947Z,94.80
2018-06-15T23:23:49.935Z,94.90
2018-06-15T23:25:54.960Z,95.30
2018-06-15T23:28:00.021Z,95.50
2018-06-15T23:30:05.312Z,95.80
2018-06-15T23:32:10.303Z,96.00
2018-06-15T23:34:15.270Z,96.10
2018-06-15T23:36:20.369Z,96.40
2018-06-15T23:38:25.411Z,96.50
2018-06-15T23:40:30.163Z,96.70
2018-06-15T23:42:35.131Z,97.00
2018-06-15T23:44:39.972Z,97.20
2018-06-15T23:46:44.864Z,97.50
2018-06-15T23:48:49.804Z,97.60
2018-06-15T23:50:54.718Z,97.80
2018-06-15T23:52:59.655Z,97.80
2018-06-15T23:55:04.778Z,97.90
2018-06-15T23:57:09.613Z,98.20
2018-06-15T23:59:14.530Z,98.10
